KCHO/CHO METAR and TAF weather

Enter ICAO airport designator
Station Type Date Time Source
KCHO METAR 2019/12/12 11:53 UTC NOAA

KCHO 121153Z 00000KT 10SM CLR M03/M08 A3066 RMK AO2 SLP387 T10331078 10000 21039 53015


Station Type Date Time Source
KCHO Decoded METAR 2019/12/12 11:53 UTC NOAA

CHARLOTTESVILLE-ALBEMARLE, VA, United States (KCHO) 38-08N 078-27W 192M
Dec 12, 2019 - 06:53 AM EST / 2019.12.12 1153 UTC
Wind: Calm:0
Visibility: 10 mile(s):0
Sky conditions: clear
Temperature: 26.1 F (-3.3 C)
Dew Point: 18.0 F (-7.8 C)
Relative Humidity: 70%
Pressure (altimeter): 30.66 in. Hg (1038 hPa)
Pressure tendency: 0.04 inches (1.5 hPa) higher than three hours ago
ob: KCHO 121153Z 00000KT 10SM CLR M03/M08 A3066 RMK AO2 SLP387 T10331078 10000 21039 53015
cycle: 12

Station Type Date Time Source
KCHO TAF 2019/12/12 12:22 UTC NOAA

TAF KCHO 121120Z 1212/1312 VRB04KT P6SM FEW250
FM130700 VRB03KT P6SM BKN130
FM131100 VRB03KT P6SM BKN060

Example: see airport list